createdAt,value
2019-03-25T00:01:02.814Z,21.84
2019-03-25T00:03:32.656Z,21.85
2019-03-25T00:06:02.377Z,21.82
2019-03-25T00:08:33.278Z,21.80
2019-03-25T00:11:04.133Z,21.83
2019-03-25T00:13:35.053Z,21.82
2019-03-25T00:16:05.910Z,21.78
2019-03-25T00:18:36.671Z,21.82
2019-03-25T00:21:07.499Z,21.81
2019-03-25T00:23:38.314Z,21.79
2019-03-25T00:26:09.186Z,21.80
2019-03-25T00:28:40.016Z,21.81
2019-03-25T00:31:10.803Z,21.80
2019-03-25T00:33:41.629Z,21.81
2019-03-25T00:36:14.480Z,21.80
2019-03-25T00:38:45.278Z,21.81
2019-03-25T00:41:16.099Z,21.80
2019-03-25T00:43:47.054Z,21.79
2019-03-25T00:46:18.086Z,21.80
2019-03-25T00:48:49.129Z,21.80
2019-03-25T00:51:20.005Z,21.81
2019-03-25T00:53:50.823Z,21.75
2019-03-25T00:56:21.725Z,21.74
2019-03-25T00:58:52.589Z,21.74
2019-03-25T01:01:23.758Z,21.75
2019-03-25T01:03:54.626Z,21.68
2019-03-25T01:06:25.458Z,21.66
2019-03-25T01:08:56.327Z,21.69
2019-03-25T01:11:28.237Z,21.68
2019-03-25T01:13:59.137Z,21.71
2019-03-25T01:16:30.043Z,21.69
2019-03-25T01:19:00.998Z,21.71
2019-03-25T01:21:31.815Z,21.75
2019-03-25T01:24:02.620Z,21.71
2019-03-25T01:26:34.384Z,21.74
2019-03-25T01:29:05.228Z,21.68
2019-03-25T01:31:36.052Z,21.72
2019-03-25T01:34:06.861Z,21.69
2019-03-25T01:36:37.650Z,21.68
2019-03-25T01:39:08.540Z,21.73
2019-03-25T01:41:39.364Z,21.73
2019-03-25T01:44:10.174Z,21.73
2019-03-25T01:46:40.961Z,21.73
2019-03-25T01:49:11.871Z,21.71
2019-03-25T01:51:42.646Z,21.69
2019-03-25T01:54:13.449Z,21.70
2019-03-25T01:56:44.382Z,21.71
2019-03-25T01:59:15.246Z,21.72
2019-03-25T02:01:46.093Z,21.74
2019-03-25T02:04:16.932Z,21.73
2019-03-25T02:06:47.688Z,21.74
2019-03-25T02:09:18.495Z,21.73
2019-03-25T02:11:49.415Z,21.71
2019-03-25T02:14:20.319Z,21.70
2019-03-25T02:16:51.137Z,21.72
2019-03-25T02:19:21.964Z,21.68
2019-03-25T02:21:52.909Z,21.71
2019-03-25T02:24:24.744Z,21.72
2019-03-25T02:26:55.548Z,21.68
2019-03-25T02:29:26.359Z,21.65
2019-03-25T02:31:57.881Z,21.54
2019-03-25T02:34:28.666Z,21.53
2019-03-25T02:36:59.663Z,21.54
2019-03-25T02:39:30.469Z,21.62
2019-03-25T02:42:01.355Z,21.61
2019-03-25T02:44:32.285Z,21.62
2019-03-25T02:47:04.140Z,21.56
2019-03-25T02:49:36.049Z,21.56
2019-03-25T02:52:06.835Z,21.51
2019-03-25T02:54:37.637Z,21.53
2019-03-25T02:57:08.384Z,21.52
2019-03-25T02:59:39.198Z,21.49
2019-03-25T03:02:10.074Z,21.46
2019-03-25T03:04:40.932Z,21.45
2019-03-25T03:07:11.875Z,21.47
2019-03-25T03:09:42.722Z,21.47
2019-03-25T03:12:13.739Z,21.51
2019-03-25T03:14:44.601Z,21.45
2019-03-25T03:17:16.546Z,21.49
2019-03-25T03:19:47.411Z,21.44
2019-03-25T03:22:18.244Z,21.45
2019-03-25T03:24:49.016Z,21.42
2019-03-25T03:27:19.870Z,21.43
2019-03-25T03:29:50.770Z,21.41
2019-03-25T03:32:21.653Z,21.40
2019-03-25T03:34:52.582Z,21.43
2019-03-25T03:37:24.426Z,21.43
2019-03-25T03:39:55.241Z,21.43
2019-03-25T03:42:26.089Z,21.41
2019-03-25T03:44:56.873Z,21.43
2019-03-25T03:47:27.733Z,21.43
2019-03-25T03:49:58.544Z,21.52
2019-03-25T03:52:29.341Z,21.50
2019-03-25T03:55:00.320Z,21.42
2019-03-25T03:57:31.396Z,21.41
2019-03-25T04:00:02.293Z,21.42
2019-03-25T04:02:33.372Z,21.41
2019-03-25T04:05:04.223Z,21.44
2019-03-25T04:07:35.101Z,21.44
2019-03-25T04:10:06.231Z,21.42
2019-03-25T04:12:37.012Z,21.45
2019-03-25T04:15:07.879Z,21.40
2019-03-25T04:17:38.645Z,21.39
2019-03-25T04:20:09.608Z,21.43
2019-03-25T04:22:40.366Z,21.44
2019-03-25T04:25:11.202Z,21.44
2019-03-25T04:27:42.014Z,21.46
2019-03-25T04:30:12.816Z,21.47
2019-03-25T04:32:44.623Z,21.47
2019-03-25T04:35:15.465Z,21.43
2019-03-25T04:37:46.289Z,21.48
2019-03-25T04:40:17.161Z,21.44
2019-03-25T04:42:47.948Z,21.43
2019-03-25T04:45:18.775Z,21.44
2019-03-25T04:47:49.613Z,21.43
2019-03-25T04:50:20.419Z,21.44
2019-03-25T04:52:51.249Z,21.43
2019-03-25T04:55:22.127Z,21.40
2019-03-25T04:57:53.046Z,21.40
2019-03-25T05:00:35.033Z,21.42
2019-03-25T05:03:05.847Z,21.45
2019-03-25T05:05:36.857Z,21.43
2019-03-25T05:08:07.688Z,21.42
2019-03-25T05:10:38.538Z,21.44
2019-03-25T05:13:09.344Z,21.44
2019-03-25T05:15:40.167Z,21.41
2019-03-25T05:18:11.005Z,21.42
2019-03-25T05:20:41.833Z,21.42
2019-03-25T05:23:12.604Z,21.42
2019-03-25T05:25:43.427Z,21.45
2019-03-25T05:28:14.233Z,21.46
2019-03-25T05:30:45.094Z,21.48
2019-03-25T05:33:16.427Z,21.46
2019-03-25T05:35:47.277Z,21.47
2019-03-25T05:38:18.081Z,21.48
2019-03-25T05:40:49.333Z,21.51
2019-03-25T05:43:21.283Z,21.47
2019-03-25T05:45:52.309Z,21.50
2019-03-25T05:48:24.151Z,21.51
2019-03-25T05:50:54.975Z,21.51
2019-03-25T05:53:25.835Z,21.48
2019-03-25T05:55:56.647Z,21.50
2019-03-25T05:58:27.498Z,21.55
2019-03-25T06:00:58.295Z,21.53
2019-03-25T06:03:29.127Z,21.54
2019-03-25T06:06:00.324Z,21.56
2019-03-25T06:08:33.403Z,21.57
2019-03-25T06:11:04.281Z,21.60
2019-03-25T06:13:35.130Z,21.57
2019-03-25T06:16:05.917Z,21.56
2019-03-25T06:18:36.761Z,21.59
2019-03-25T06:21:07.541Z,21.61
2019-03-25T06:23:38.606Z,21.57
2019-03-25T06:26:09.452Z,21.61
2019-03-25T06:28:40.342Z,21.62
2019-03-25T06:31:11.127Z,21.63
2019-03-25T06:33:41.946Z,21.62
2019-03-25T06:36:12.867Z,21.62
2019-03-25T06:38:43.629Z,21.63
2019-03-25T06:41:14.486Z,21.64
2019-03-25T06:43:45.305Z,21.62
2019-03-25T06:46:16.199Z,21.64
2019-03-25T06:48:46.998Z,21.71
2019-03-25T06:51:17.898Z,21.74
2019-03-25T06:53:53.604Z,21.72
2019-03-25T06:56:26.523Z,21.70
2019-03-25T06:58:57.410Z,21.73
2019-03-25T07:01:28.386Z,21.63
2019-03-25T07:03:59.480Z,21.33
2019-03-25T07:06:30.692Z,21.18
2019-03-25T07:09:01.746Z,21.15
2019-03-25T07:11:33.938Z,20.77
2019-03-25T07:14:04.987Z,20.52
2019-03-25T07:16:36.154Z,20.75
2019-03-25T07:19:07.218Z,20.78
2019-03-25T07:21:38.294Z,20.79
2019-03-25T07:24:09.413Z,20.80
2019-03-25T07:26:40.598Z,20.79
2019-03-25T07:29:11.635Z,20.81
2019-03-25T07:31:42.614Z,20.83
2019-03-25T07:34:13.654Z,20.83
2019-03-25T07:36:44.641Z,20.76
2019-03-25T07:39:15.670Z,20.70
2019-03-25T07:41:46.674Z,20.74
2019-03-25T07:44:17.669Z,20.72
2019-03-25T07:46:48.647Z,20.74
2019-03-25T07:49:19.682Z,20.69
2019-03-25T07:51:50.646Z,20.70
2019-03-25T07:54:21.827Z,20.70
2019-03-25T07:56:52.946Z,20.65
2019-03-25T07:59:24.037Z,20.71
2019-03-25T08:01:55.099Z,20.70
2019-03-25T08:04:26.216Z,20.73
2019-03-25T08:06:57.386Z,20.68
2019-03-25T08:09:28.458Z,20.65
2019-03-25T08:11:59.561Z,20.59
2019-03-25T08:14:30.631Z,20.60
2019-03-25T08:17:02.159Z,20.65
2019-03-25T08:19:34.287Z,20.64
2019-03-25T08:22:06.795Z,20.65
2019-03-25T08:24:37.831Z,20.67
2019-03-25T08:27:08.938Z,20.65
2019-03-25T08:29:39.997Z,20.63
2019-03-25T08:32:08.871Z,20.68
2019-03-25T08:34:37.788Z,20.66
2019-03-25T08:37:08.888Z,20.65
2019-03-25T08:39:40.000Z,20.63
2019-03-25T08:42:11.175Z,20.59
2019-03-25T08:44:42.551Z,20.59
2019-03-25T08:47:13.692Z,20.63
2019-03-25T08:49:45.785Z,20.56
2019-03-25T08:52:16.884Z,20.58
2019-03-25T08:54:47.916Z,20.59
2019-03-25T08:57:19.078Z,20.54
2019-03-25T08:59:50.103Z,20.61
2019-03-25T09:02:21.186Z,20.57
2019-03-25T09:04:52.239Z,20.56
2019-03-25T09:07:23.276Z,20.60
2019-03-25T09:09:54.326Z,20.57
2019-03-25T09:12:25.328Z,20.60
2019-03-25T09:14:57.155Z,20.59
2019-03-25T09:17:28.163Z,20.61
2019-03-25T09:19:59.252Z,20.58
2019-03-25T09:22:30.373Z,20.58
2019-03-25T09:25:01.769Z,20.55
2019-03-25T09:27:32.895Z,20.56
2019-03-25T09:30:04.502Z,20.58
2019-03-25T09:32:35.878Z,20.50
2019-03-25T09:35:07.479Z,20.50
2019-03-25T09:37:38.918Z,20.55
2019-03-25T09:40:10.506Z,20.52
2019-03-25T09:42:41.511Z,20.53
2019-03-25T09:45:12.637Z,20.52
2019-03-25T09:47:43.697Z,20.55
2019-03-25T09:50:14.806Z,20.55
2019-03-25T09:52:45.904Z,20.56
2019-03-25T09:55:17.017Z,20.61
2019-03-25T09:57:48.037Z,20.59
2019-03-25T10:00:22.881Z,20.55
2019-03-25T10:02:53.960Z,20.64
2019-03-25T10:05:25.371Z,20.70
2019-03-25T10:07:56.465Z,20.73
2019-03-25T10:10:27.567Z,20.76
2019-03-25T10:12:58.800Z,20.76
2019-03-25T10:15:29.967Z,20.80
2019-03-25T10:18:01.068Z,20.78
2019-03-25T10:20:34.513Z,20.81
2019-03-25T10:23:05.591Z,20.82
2019-03-25T10:25:36.664Z,20.84
2019-03-25T10:28:08.923Z,20.89
2019-03-25T10:30:39.957Z,20.86
2019-03-25T10:33:12.152Z,20.89
2019-03-25T10:35:43.231Z,20.92
2019-03-25T10:38:19.573Z,20.92
2019-03-25T10:40:47.153Z,20.96
2019-03-25T10:43:18.324Z,20.95
2019-03-25T10:45:50.232Z,20.95
2019-03-25T10:48:21.710Z,20.94
2019-03-25T10:50:52.763Z,20.87
2019-03-25T10:53:24.219Z,20.86
2019-03-25T10:55:55.320Z,20.89
2019-03-25T10:58:26.495Z,20.91
2019-03-25T11:00:57.609Z,20.95
2019-03-25T11:03:28.736Z,20.98
2019-03-25T11:05:59.777Z,20.99
2019-03-25T11:08:30.868Z,20.96
2019-03-25T11:11:01.910Z,20.94
2019-03-25T11:13:32.943Z,20.92
2019-03-25T11:16:04.401Z,20.92
2019-03-25T11:18:35.472Z,20.92
2019-03-25T11:21:06.582Z,20.92
2019-03-25T11:23:37.660Z,20.92
2019-03-25T11:26:08.772Z,20.95
2019-03-25T11:28:39.848Z,20.97
2019-03-25T11:31:11.195Z,20.99
2019-03-25T11:33:42.294Z,20.97
2019-03-25T11:36:13.448Z,20.94
2019-03-25T11:38:44.653Z,20.92
2019-03-25T11:41:16.301Z,20.96
2019-03-25T11:43:47.355Z,21.02
2019-03-25T11:46:18.502Z,21.05
2019-03-25T11:48:49.768Z,21.11
2019-03-25T11:51:20.896Z,21.07
2019-03-25T11:53:51.989Z,21.11
2019-03-25T11:56:24.148Z,21.13
2019-03-25T11:58:55.320Z,21.15
2019-03-25T12:01:26.363Z,21.13
2019-03-25T12:03:57.417Z,21.15
2019-03-25T12:06:28.504Z,21.15
2019-03-25T12:08:59.530Z,21.14
2019-03-25T12:11:30.638Z,21.21
2019-03-25T12:14:01.669Z,21.24
2019-03-25T12:16:32.823Z,21.29
2019-03-25T12:19:04.445Z,21.29
2019-03-25T12:21:35.456Z,21.30
2019-03-25T12:24:06.530Z,21.33
2019-03-25T12:26:37.615Z,21.34
2019-03-25T12:29:08.682Z,21.36
2019-03-25T12:31:40.769Z,21.38
2019-03-25T12:34:11.929Z,21.39
2019-03-25T12:36:42.900Z,21.41
2019-03-25T12:39:14.000Z,21.40
2019-03-25T12:41:45.050Z,21.40
2019-03-25T12:44:16.200Z,21.40
2019-03-25T12:46:47.334Z,21.40
2019-03-25T12:49:18.363Z,21.43
2019-03-25T12:51:49.532Z,21.41
2019-03-25T12:54:20.644Z,21.43
2019-03-25T12:56:51.694Z,21.43
2019-03-25T12:59:22.742Z,21.46
2019-03-25T13:01:53.890Z,21.48
2019-03-25T13:04:24.950Z,21.47
2019-03-25T13:06:55.980Z,21.46
2019-03-25T13:09:27.097Z,21.49
2019-03-25T13:11:58.543Z,21.51
2019-03-25T13:14:30.167Z,21.54
2019-03-25T13:17:04.434Z,21.59
2019-03-25T13:19:36.051Z,21.61
2019-03-25T13:22:07.193Z,21.63
2019-03-25T13:24:38.254Z,21.63
2019-03-25T13:27:09.491Z,21.64
2019-03-25T13:29:51.771Z,21.65
2019-03-25T13:32:13.257Z,21.66
2019-03-25T13:34:44.331Z,21.64
2019-03-25T13:37:16.522Z,21.57
2019-03-25T13:39:47.580Z,21.54
2019-03-25T13:42:18.778Z,21.61
2019-03-25T13:44:49.883Z,21.66
2019-03-25T13:47:20.973Z,21.70
2019-03-25T13:49:52.013Z,21.72
2019-03-25T13:52:23.103Z,21.74
2019-03-25T13:54:54.195Z,21.74
2019-03-25T13:57:25.292Z,21.76
2019-03-25T14:00:03.311Z,21.75
2019-03-25T14:02:29.172Z,21.75
2019-03-25T14:05:00.434Z,21.74
2019-03-25T14:07:31.509Z,21.74
2019-03-25T14:10:02.667Z,21.76
2019-03-25T14:12:34.127Z,21.78
2019-03-25T14:15:05.371Z,21.78
2019-03-25T14:17:37.047Z,21.78
2019-03-25T14:20:08.192Z,21.80
2019-03-25T14:22:39.342Z,21.81
2019-03-25T14:25:10.443Z,21.79
2019-03-25T14:27:41.500Z,21.80
2019-03-25T14:30:14.718Z,21.80
2019-03-25T14:32:45.700Z,21.81
2019-03-25T14:35:16.727Z,21.81
2019-03-25T14:37:48.002Z,21.83
2019-03-25T14:40:19.200Z,21.83
2019-03-25T14:42:50.383Z,21.84
2019-03-25T14:45:26.367Z,21.84
2019-03-25T14:47:54.532Z,21.86
2019-03-25T14:50:26.596Z,21.87
2019-03-25T14:52:57.954Z,21.87
2019-03-25T14:55:29.015Z,21.86
2019-03-25T14:58:00.164Z,21.85
2019-03-25T15:00:31.326Z,21.89
2019-03-25T15:03:02.497Z,21.90
2019-03-25T15:05:33.563Z,21.89
2019-03-25T15:08:04.722Z,21.90
2019-03-25T15:10:36.145Z,21.89
2019-03-25T15:13:07.339Z,21.90
2019-03-25T15:15:40.987Z,21.92
2019-03-25T15:18:15.725Z,21.90
2019-03-25T15:20:44.836Z,21.90
2019-03-25T15:23:16.781Z,21.92
2019-03-25T15:25:47.631Z,21.93
2019-03-25T15:28:18.504Z,21.92
2019-03-25T15:30:49.302Z,21.90
2019-03-25T15:33:20.209Z,21.90
2019-03-25T15:35:53.336Z,21.84
2019-03-25T15:38:25.513Z,21.88
2019-03-25T15:40:56.639Z,21.90
2019-03-25T15:43:27.463Z,21.90
2019-03-25T15:45:58.354Z,21.94
2019-03-25T15:48:29.157Z,21.95
2019-03-25T15:51:00.047Z,21.94
2019-03-25T15:53:28.953Z,21.93
2019-03-25T15:56:00.766Z,21.94
2019-03-25T15:58:31.598Z,21.93
2019-03-25T16:01:02.424Z,21.90
2019-03-25T16:03:33.242Z,21.95
2019-03-25T16:06:04.395Z,21.95
2019-03-25T16:08:35.380Z,21.98
2019-03-25T16:11:06.241Z,21.95
2019-03-25T16:13:38.234Z,21.93
2019-03-25T16:16:09.156Z,21.93
2019-03-25T16:18:41.039Z,21.95
2019-03-25T16:21:11.893Z,21.95
2019-03-25T16:23:42.761Z,21.97
2019-03-25T16:26:13.631Z,21.96
2019-03-25T16:28:44.459Z,21.98
2019-03-25T16:31:15.269Z,21.97
2019-03-25T16:33:46.144Z,21.97
2019-03-25T16:36:16.964Z,21.98
2019-03-25T16:38:47.802Z,21.97
2019-03-25T16:41:18.695Z,21.99
2019-03-25T16:43:49.549Z,21.97
2019-03-25T16:46:20.616Z,21.93
2019-03-25T16:48:51.512Z,21.97
2019-03-25T16:51:22.450Z,21.95
2019-03-25T16:53:56.015Z,21.98
2019-03-25T16:56:26.780Z,21.99
2019-03-25T16:58:57.688Z,21.95
2019-03-25T17:01:28.568Z,21.99
2019-03-25T17:03:59.545Z,21.96
2019-03-25T17:06:30.879Z,21.97
2019-03-25T17:09:01.767Z,22.00
2019-03-25T17:11:33.117Z,22.02
2019-03-25T17:14:04.086Z,22.03
2019-03-25T17:16:35.008Z,22.03
2019-03-25T17:19:05.872Z,21.87
2019-03-25T17:21:36.722Z,21.82
2019-03-25T17:24:07.610Z,21.91
2019-03-25T17:26:42.613Z,21.98
2019-03-25T17:29:11.061Z,22.02
2019-03-25T17:31:41.921Z,22.06
2019-03-25T17:34:12.782Z,22.07
2019-03-25T17:36:43.982Z,22.08
2019-03-25T17:39:14.794Z,22.09
2019-03-25T17:41:46.162Z,22.12
2019-03-25T17:44:16.979Z,22.14
2019-03-25T17:46:47.797Z,22.17
2019-03-25T17:49:18.764Z,22.19
2019-03-25T17:51:49.653Z,22.19
2019-03-25T17:54:20.525Z,22.22
2019-03-25T17:56:53.463Z,22.21
2019-03-25T17:59:24.280Z,22.20
2019-03-25T18:01:55.152Z,22.22
2019-03-25T18:04:26.009Z,22.22
2019-03-25T18:06:57.067Z,22.24
2019-03-25T18:09:27.935Z,22.24
2019-03-25T18:11:58.819Z,22.24
2019-03-25T18:14:31.258Z,22.24
2019-03-25T18:17:02.150Z,22.25
2019-03-25T18:19:33.015Z,22.24
2019-03-25T18:22:03.843Z,22.25
2019-03-25T18:24:34.773Z,22.26
2019-03-25T18:27:05.669Z,22.26
2019-03-25T18:29:38.911Z,22.26
2019-03-25T18:32:09.833Z,22.26
2019-03-25T18:34:40.626Z,22.26
2019-03-25T18:37:11.469Z,22.28
2019-03-25T18:39:42.284Z,22.27
2019-03-25T18:42:13.181Z,22.28
2019-03-25T18:44:44.039Z,22.29
2019-03-25T18:47:14.971Z,22.28
2019-03-25T18:49:47.466Z,22.29
2019-03-25T18:52:18.418Z,22.29
2019-03-25T18:54:49.199Z,22.30
2019-03-25T18:57:20.058Z,22.31
2019-03-25T18:59:50.864Z,22.33
2019-03-25T19:02:21.650Z,22.33
2019-03-25T19:04:52.789Z,22.34
2019-03-25T19:07:25.698Z,22.31
2019-03-25T19:09:56.511Z,22.34
2019-03-25T19:12:27.454Z,22.34
2019-03-25T19:14:59.608Z,22.35
2019-03-25T19:17:30.251Z,22.35
2019-03-25T19:20:02.156Z,22.36
2019-03-25T19:22:33.396Z,22.35
2019-03-25T19:25:04.299Z,22.37
2019-03-25T19:27:38.111Z,22.36
2019-03-25T19:30:10.137Z,22.39
2019-03-25T19:32:43.297Z,22.39
2019-03-25T19:35:14.321Z,22.38
2019-03-25T19:37:45.141Z,22.41
2019-03-25T19:40:15.905Z,22.42
2019-03-25T19:42:46.764Z,22.43
2019-03-25T19:45:17.939Z,22.45
2019-03-25T19:47:49.041Z,22.42
2019-03-25T19:50:19.974Z,22.39
2019-03-25T19:52:50.877Z,22.39
2019-03-25T19:55:21.815Z,22.40
2019-03-25T19:57:52.748Z,22.41
2019-03-25T20:00:38.403Z,22.45
2019-03-25T20:03:10.918Z,22.42
2019-03-25T20:05:41.891Z,22.41
2019-03-25T20:08:12.762Z,22.42
2019-03-25T20:10:43.601Z,22.43
2019-03-25T20:13:14.521Z,22.43
2019-03-25T20:15:46.825Z,22.46
2019-03-25T20:18:18.054Z,22.49
2019-03-25T20:20:48.894Z,22.48
2019-03-25T20:23:19.830Z,22.48
2019-03-25T20:25:51.127Z,22.49
2019-03-25T20:28:23.191Z,22.48
2019-03-25T20:30:55.230Z,22.49
2019-03-25T20:33:26.110Z,22.51
2019-03-25T20:35:57.008Z,22.51
2019-03-25T20:38:28.211Z,22.52
2019-03-25T20:40:59.164Z,22.52
2019-03-25T20:43:30.130Z,22.52
2019-03-25T20:46:01.026Z,22.52
2019-03-25T20:48:31.946Z,22.53
2019-03-25T20:51:02.844Z,22.55
2019-03-25T20:53:33.886Z,22.54
2019-03-25T20:56:04.909Z,22.55
2019-03-25T20:58:35.899Z,22.54
2019-03-25T21:01:06.805Z,22.57
2019-03-25T21:03:37.814Z,22.58
2019-03-25T21:06:08.709Z,22.60
2019-03-25T21:08:39.669Z,22.61
2019-03-25T21:11:10.672Z,22.59
2019-03-25T21:13:42.583Z,22.54
2019-03-25T21:16:13.751Z,22.57
2019-03-25T21:18:44.789Z,22.57
2019-03-25T21:21:15.786Z,22.60
2019-03-25T21:23:46.764Z,22.58
2019-03-25T21:26:17.517Z,22.58
2019-03-25T21:28:47.352Z,22.61
2019-03-25T21:31:17.111Z,22.61
2019-03-25T21:33:48.203Z,22.59
2019-03-25T21:36:19.083Z,22.58
2019-03-25T21:38:49.855Z,22.59
2019-03-25T21:41:20.650Z,22.59
2019-03-25T21:43:51.503Z,22.63
2019-03-25T21:46:22.401Z,22.63
2019-03-25T21:48:53.352Z,22.66
2019-03-25T21:51:24.317Z,22.66
2019-03-25T21:53:55.212Z,22.66
2019-03-25T21:56:26.080Z,22.66
2019-03-25T21:58:56.960Z,22.67
2019-03-25T22:01:27.798Z,22.69
2019-03-25T22:03:58.666Z,22.70
2019-03-25T22:06:29.740Z,22.70
2019-03-25T22:09:01.647Z,22.70
2019-03-25T22:11:32.956Z,22.69
2019-03-25T22:14:03.738Z,22.71
2019-03-25T22:16:34.629Z,22.70
2019-03-25T22:19:05.498Z,22.71
2019-03-25T22:21:36.371Z,22.71
2019-03-25T22:24:09.514Z,22.72
2019-03-25T22:26:40.379Z,22.70
2019-03-25T22:29:13.571Z,22.70
2019-03-25T22:31:44.436Z,22.70
2019-03-25T22:34:15.357Z,22.68
2019-03-25T22:36:46.223Z,22.69
2019-03-25T22:39:16.995Z,22.71
2019-03-25T22:41:47.851Z,22.70
2019-03-25T22:44:18.957Z,22.71
2019-03-25T22:46:49.844Z,22.70
2019-03-25T22:49:20.767Z,22.71
2019-03-25T22:51:51.534Z,22.69
2019-03-25T22:54:22.385Z,22.68
2019-03-25T22:56:53.130Z,22.69
2019-03-25T22:59:24.014Z,22.67
2019-03-25T23:01:54.754Z,22.67
2019-03-25T23:04:25.594Z,22.66
2019-03-25T23:06:56.406Z,22.67
2019-03-25T23:09:27.211Z,22.66
2019-03-25T23:11:59.685Z,22.66
2019-03-25T23:14:31.749Z,22.65
2019-03-25T23:17:02.556Z,22.64
2019-03-25T23:19:38.506Z,22.65
2019-03-25T23:22:09.138Z,22.64
2019-03-25T23:24:39.899Z,22.66
2019-03-25T23:27:10.672Z,22.66
2019-03-25T23:29:41.538Z,22.64
2019-03-25T23:32:12.392Z,22.65
2019-03-25T23:34:43.510Z,22.64
2019-03-25T23:37:14.566Z,22.63
2019-03-25T23:39:45.429Z,22.63
2019-03-25T23:42:17.880Z,22.61
2019-03-25T23:44:48.796Z,22.61
2019-03-25T23:47:19.532Z,22.62
2019-03-25T23:49:50.392Z,22.59
2019-03-25T23:52:23.457Z,22.59
2019-03-25T23:54:54.267Z,22.59
2019-03-25T23:57:25.108Z,22.58
2019-03-25T23:59:56.182Z,22.58
